Aeroporto :
LOGIN :

Iscrizione | Disclaimer

   EN    FR    IT 

 










Sommario :    VFR   VFR Marginale   IFR   IFR Intensivo   IFR Molto Intensivo
Visibilità : 
Base nubi : 
>= 8 km
>= 3000ft
5 / 8 km
1000 / 3000 ft
1500m / 5 km
500 / 1000 ft
800 / 1500m
200 / 500 ft
< 800m
< 200 ft
Simboli :   Temporali  Nebbia  Neve Forte  Precipitazioni Forti  Vento > 20 kt
SIGMETs :   Varie  Temporali  Ghiacco  Turbolenza  Onda orograficha  Ceneri Vulcaniche







- Altitudine del aeroporto : 778 ft
- Codice IATA : BRQ


LKTB - Brno-Turany

ULTIMO METAR :
  • 191700Z 06003KT CAVOK 08/02 Q1018 NOSIG

METARs OBSOLETI :
  • 191630Z VRB02KT CAVOK 09/02 Q1018 NOSIG
  • 191600Z VRB02KT CAVOK 09/02 Q1018 NOSIG
  • 191530Z 14003KT 100V180 CAVOK 10/03 Q1018 NOSIG
  • 191500Z VRB02KT CAVOK 11/03 Q1018 NOSIG
  • 191430Z 17003KT 120V230 CAVOK 10/03 Q1018 NOSIG
  • 191425Z 17003KT 120V230 CAVOK 10/03 Q1018 RMK REG QNH 1015
  • 191400Z 20006KT 170V240 CAVOK 10/03 Q1018 NOSIG

TAF TAF LKTB
Valido dal 19 a 12 ore il 20 a 18 ore UTC


191100Z 1912/2018 26008KT CAVOK
BECMG 2009/2012 30010KT 9999 BKN040
Nessun NOTAM noto per questo aeroporto.



MetMap, La meteo Aeronautica in un colpo d'occhio ! - Copyright ORBIFLY Dicembre 2007 - Disclaimer

ORBIFLY MET'MAP TEAM :

Programmazione e sviluppo : Alexandra Zaïnal
Concezione e sviluppo : Baudouin d'Aumeries
Co-Programmazione e sviluppo : Marc-Olivier Méhu
Supporto tecnico e logistico : Manuel Goepfert
Aiuto per la traduzione : Arnaldo La Scala

Contatto : metmap@orbifly.com




FONTI E CREDITI :

   NOAA